createdAt,value
2019-04-27T00:02:24.801Z,22.67
2019-04-27T00:05:26.603Z,24.40
2019-04-27T00:08:21.343Z,24.23
2019-04-27T00:11:09.754Z,25.40
2019-04-27T00:13:42.312Z,26.97
2019-04-27T00:16:40.433Z,26.37
2019-04-27T00:19:31.800Z,27.73
2019-04-27T00:22:18.851Z,29.20
2019-04-27T00:24:48.097Z,28.53
2019-04-27T00:27:20.495Z,29.70
2019-04-27T00:29:50.014Z,30.37
2019-04-27T00:32:19.500Z,29.77
2019-04-27T00:34:49.364Z,28.90
2019-04-27T00:37:26.490Z,28.67
2019-04-27T00:40:06.684Z,28.83
2019-04-27T00:42:37.637Z,32.17
2019-04-27T00:45:07.579Z,33.17
2019-04-27T00:47:37.279Z,30.07
2019-04-27T00:50:08.592Z,29.83
2019-04-27T00:52:40.924Z,30.40
2019-04-27T00:55:10.107Z,29.60
2019-04-27T00:57:58.913Z,30.40
2019-04-27T01:00:47.793Z,31.17
2019-04-27T01:03:37.080Z,30.40
2019-04-27T01:06:06.648Z,31.90
2019-04-27T01:08:35.924Z,34.10
2019-04-27T01:11:05.210Z,30.10
2019-04-27T01:13:35.160Z,32.30
2019-04-27T01:16:06.285Z,28.93
2019-04-27T01:18:35.785Z,32.93
2019-04-27T01:21:05.336Z,31.07
2019-04-27T01:23:35.246Z,29.27
2019-04-27T01:26:18.728Z,30.17
2019-04-27T01:28:53.515Z,29.20
2019-04-27T01:31:25.827Z,30.00
2019-04-27T01:33:56.061Z,28.30
2019-04-27T01:36:26.587Z,27.80
2019-04-27T01:38:57.246Z,28.13
2019-04-27T01:41:29.066Z,28.17
2019-04-27T01:43:59.147Z,26.90
2019-04-27T01:46:29.746Z,27.50
2019-04-27T01:49:00.863Z,26.87
2019-04-27T01:51:31.957Z,27.57
2019-04-27T01:54:01.685Z,26.60
2019-04-27T01:56:35.984Z,26.90
2019-04-27T01:59:05.616Z,27.03
2019-04-27T02:01:50.959Z,27.00
2019-04-27T02:04:31.646Z,26.73
2019-04-27T02:07:09.099Z,27.13
2019-04-27T02:09:38.759Z,27.07
2019-04-27T02:12:09.365Z,27.13
2019-04-27T02:14:41.812Z,25.00
2019-04-27T02:17:11.467Z,27.10
2019-04-27T02:19:42.395Z,25.33
2019-04-27T02:22:11.556Z,27.03
2019-04-27T02:24:41.677Z,25.57
2019-04-27T02:27:13.173Z,27.43
2019-04-27T02:30:06.392Z,26.13
2019-04-27T02:32:53.284Z,27.63
2019-04-27T02:35:23.440Z,27.87
2019-04-27T02:37:52.597Z,27.27
2019-04-27T02:40:50.353Z,28.43
2019-04-27T02:43:21.591Z,30.80
2019-04-27T02:45:51.032Z,29.83
2019-04-27T02:48:22.273Z,29.17
2019-04-27T02:50:53.846Z,30.10
2019-04-27T02:53:43.285Z,31.73
2019-04-27T02:56:12.487Z,30.70
2019-04-27T02:58:42.228Z,32.30
2019-04-27T03:01:12.175Z,31.13
2019-04-27T03:03:41.372Z,31.53
2019-04-27T03:06:10.859Z,31.33
2019-04-27T03:08:42.743Z,31.23
2019-04-27T03:11:12.241Z,31.40
2019-04-27T03:14:04.067Z,31.63
2019-04-27T03:17:01.440Z,31.83
2019-04-27T03:19:56.872Z,32.37
2019-04-27T03:22:39.956Z,31.53
2019-04-27T03:25:31.915Z,32.70
2019-04-27T03:28:26.904Z,31.23
2019-04-27T03:30:56.792Z,33.53
2019-04-27T03:33:31.985Z,32.90
2019-04-27T03:36:02.654Z,32.37
2019-04-27T03:38:31.029Z,32.63
2019-04-27T03:41:00.704Z,34.17
2019-04-27T03:43:30.317Z,32.33
2019-04-27T03:46:00.624Z,31.70
2019-04-27T03:48:30.687Z,30.77
2019-04-27T03:51:22.126Z,31.90
2019-04-27T03:54:10.391Z,33.43
2019-04-27T03:56:50.790Z,31.90
2019-04-27T03:59:54.910Z,31.90
2019-04-27T04:02:24.114Z,31.17
2019-04-27T04:04:53.802Z,30.80
2019-04-27T04:07:23.558Z,31.50
2019-04-27T04:09:52.735Z,31.07
2019-04-27T04:12:40.229Z,30.33
2019-04-27T04:15:13.237Z,29.53
2019-04-27T04:17:42.797Z,29.67
2019-04-27T04:20:13.115Z,29.70
2019-04-27T04:22:43.383Z,30.27
2019-04-27T04:25:13.081Z,29.13
2019-04-27T04:27:43.352Z,29.40
2019-04-27T04:30:14.190Z,31.60
2019-04-27T04:32:43.846Z,29.50
2019-04-27T04:35:21.425Z,28.90
2019-04-27T04:37:52.954Z,30.50
2019-04-27T04:40:31.256Z,27.67
2019-04-27T04:43:06.708Z,28.30
2019-04-27T04:45:50.129Z,27.47
2019-04-27T04:48:21.260Z,27.43
2019-04-27T04:50:53.080Z,26.03
2019-04-27T04:53:24.596Z,25.60
2019-04-27T04:55:54.000Z,26.87
2019-04-27T04:58:23.286Z,26.60
2019-04-27T05:00:54.062Z,28.03
2019-04-27T05:03:30.822Z,29.03
2019-04-27T05:06:00.030Z,29.50
2019-04-27T05:08:29.317Z,29.70
2019-04-27T05:10:59.684Z,31.07
2019-04-27T05:13:29.420Z,29.43
2019-04-27T05:15:59.010Z,29.57
2019-04-27T05:18:29.288Z,30.17
2019-04-27T05:21:04.898Z,31.07
2019-04-27T05:23:34.458Z,30.50
2019-04-27T05:26:03.965Z,31.43
2019-04-27T05:28:40.625Z,32.50
2019-04-27T05:31:10.136Z,31.30
2019-04-27T05:33:39.324Z,30.50
2019-04-27T05:36:09.223Z,29.70
2019-04-27T05:38:41.911Z,29.33
2019-04-27T05:41:09.669Z,28.80
2019-04-27T05:43:59.174Z,28.07
2019-04-27T05:46:47.595Z,26.77
2019-04-27T05:49:25.021Z,27.47
2019-04-27T05:51:54.168Z,26.27
2019-04-27T05:54:23.345Z,25.70
2019-04-27T05:56:53.272Z,25.10
2019-04-27T05:59:22.456Z,23.70
2019-04-27T06:01:51.626Z,23.83
2019-04-27T06:04:20.795Z,23.87
2019-04-27T06:06:50.070Z,23.47
2019-04-27T06:09:19.643Z,24.80
2019-04-27T06:11:50.645Z,24.40
2019-04-27T06:14:19.887Z,23.93
2019-04-27T06:16:51.338Z,24.90
2019-04-27T06:19:20.323Z,25.13
2019-04-27T06:21:51.205Z,25.23
2019-04-27T06:24:20.410Z,24.53
2019-04-27T06:26:49.967Z,22.90
2019-04-27T06:29:19.815Z,23.53
2019-04-27T06:31:49.759Z,23.07
2019-04-27T06:34:20.172Z,22.57
2019-04-27T06:36:50.163Z,22.30
2019-04-27T06:39:20.835Z,22.10
2019-04-27T06:41:50.077Z,21.67
2019-04-27T06:44:19.743Z,21.07
2019-04-27T06:46:49.876Z,21.43
2019-04-27T06:49:20.064Z,21.87
2019-04-27T06:51:49.989Z,22.37
2019-04-27T06:54:21.474Z,22.47
2019-04-27T06:56:51.709Z,21.77
2019-04-27T06:59:20.896Z,22.27
2019-04-27T07:01:54.192Z,22.00
2019-04-27T07:04:24.440Z,20.73
2019-04-27T07:06:56.226Z,19.87
2019-04-27T07:09:25.733Z,20.43
2019-04-27T07:11:54.937Z,19.20
2019-04-27T07:14:25.351Z,20.30
2019-04-27T07:16:59.863Z,22.07
2019-04-27T07:19:30.704Z,21.33
2019-04-27T07:22:00.744Z,20.20
2019-04-27T07:24:41.702Z,19.57
2019-04-27T07:27:15.370Z,19.73
2019-04-27T07:29:45.247Z,19.70
2019-04-27T07:32:14.765Z,17.33
2019-04-27T07:34:44.455Z,16.83
2019-04-27T07:37:13.642Z,17.47
2019-04-27T07:39:43.060Z,15.93
2019-04-27T07:42:12.542Z,14.80
2019-04-27T07:44:53.086Z,15.40
2019-04-27T07:47:29.416Z,13.20
2019-04-27T07:50:01.474Z,13.20
2019-04-27T07:52:34.418Z,13.20
2019-04-27T07:55:04.029Z,13.03
2019-04-27T07:57:52.079Z,13.00
2019-04-27T08:00:24.800Z,11.23
2019-04-27T08:02:54.049Z,12.50
2019-04-27T08:05:23.261Z,10.43
2019-04-27T08:07:53.271Z,10.20
2019-04-27T08:10:22.246Z,10.10
2019-04-27T08:12:52.478Z,9.60
2019-04-27T08:15:21.726Z,10.63
2019-04-27T08:17:51.250Z,9.07
2019-04-27T08:20:21.181Z,10.03
2019-04-27T08:22:50.804Z,9.80
2019-04-27T08:25:19.961Z,8.53
2019-04-27T08:27:57.045Z,9.03
2019-04-27T08:30:58.550Z,8.50
2019-04-27T08:33:29.006Z,10.00
2019-04-27T08:35:59.099Z,9.10
2019-04-27T08:38:29.026Z,8.50
2019-04-27T08:40:59.235Z,7.90
2019-04-27T08:43:28.979Z,8.30
2019-04-27T08:46:00.357Z,8.27
2019-04-27T08:48:36.046Z,8.00
2019-04-27T08:51:01.583Z,7.97
2019-04-27T08:53:31.406Z,6.90
2019-04-27T08:56:02.631Z,7.53
2019-04-27T08:58:32.938Z,6.77
2019-04-27T09:01:02.441Z,6.70
2019-04-27T09:03:31.933Z,6.50
2019-04-27T09:06:02.762Z,6.63
2019-04-27T09:08:49.353Z,5.93
2019-04-27T09:11:39.811Z,6.40
2019-04-27T09:14:15.371Z,6.10
2019-04-27T09:17:00.077Z,6.20
2019-04-27T09:19:40.566Z,6.07
2019-04-27T09:22:16.003Z,6.20
2019-04-27T09:24:40.624Z,6.07
2019-04-27T09:27:09.794Z,6.57
2019-04-27T09:29:42.480Z,6.90
2019-04-27T09:32:12.161Z,7.43
2019-04-27T09:34:41.658Z,6.80
2019-04-27T09:37:10.828Z,7.10
2019-04-27T09:39:41.467Z,6.70
2019-04-27T09:42:10.738Z,7.10
2019-04-27T09:44:41.743Z,7.20
2019-04-27T09:47:12.264Z,7.80
2019-04-27T09:49:41.427Z,7.60
2019-04-27T09:52:23.611Z,10.10
2019-04-27T09:54:44.027Z,8.60
2019-04-27T09:57:15.896Z,8.70
2019-04-27T09:59:48.953Z,7.87
2019-04-27T10:02:19.475Z,7.27
2019-04-27T10:04:48.970Z,12.70
2019-04-27T10:07:18.152Z,11.50
2019-04-27T10:09:47.622Z,10.00
2019-04-27T10:12:17.597Z,8.40
2019-04-27T10:14:47.876Z,7.60
2019-04-27T10:17:17.071Z,7.40
2019-04-27T10:19:46.277Z,7.80
2019-04-27T10:22:15.937Z,7.00
2019-04-27T10:24:45.255Z,6.50
2019-04-27T10:27:16.159Z,6.43
2019-04-27T10:29:46.787Z,5.83
2019-04-27T10:32:16.238Z,5.03
2019-04-27T10:34:45.748Z,5.37
2019-04-27T10:37:16.082Z,5.87
2019-04-27T10:39:46.377Z,6.07
2019-04-27T10:42:16.453Z,6.50
2019-04-27T10:44:46.219Z,6.27
2019-04-27T10:47:16.049Z,6.07
2019-04-27T10:49:48.004Z,5.50
2019-04-27T10:52:17.214Z,6.03
2019-04-27T10:54:46.614Z,5.50
2019-04-27T10:57:15.929Z,5.20
2019-04-27T10:59:46.153Z,5.20
2019-04-27T11:02:15.842Z,5.43
2019-04-27T11:04:54.195Z,6.07
2019-04-27T11:07:26.076Z,5.70
2019-04-27T11:09:57.515Z,5.37
2019-04-27T11:12:27.042Z,5.40
2019-04-27T11:14:56.199Z,4.93
2019-04-27T11:17:26.730Z,5.03
2019-04-27T11:19:55.938Z,4.73
2019-04-27T11:22:26.072Z,5.10
2019-04-27T11:24:56.389Z,5.80
2019-04-27T11:27:25.688Z,5.57
2019-04-27T11:29:56.428Z,7.03
2019-04-27T11:32:25.672Z,5.60
2019-04-27T11:35:16.626Z,5.10
2019-04-27T11:37:45.812Z,6.10
2019-04-27T11:40:15.566Z,5.97
2019-04-27T11:42:44.766Z,5.83
2019-04-27T11:45:14.350Z,5.93
2019-04-27T11:47:45.815Z,6.23
2019-04-27T11:50:16.686Z,5.80
2019-04-27T11:52:45.891Z,4.77
2019-04-27T11:55:16.368Z,4.73
2019-04-27T11:57:47.008Z,4.73
2019-04-27T12:00:21.399Z,3.97
2019-04-27T12:02:50.934Z,3.93
2019-04-27T12:05:20.234Z,3.40
2019-04-27T12:07:50.050Z,4.17
2019-04-27T12:10:19.808Z,4.27
2019-04-27T12:12:49.566Z,4.17
2019-04-27T12:15:21.301Z,3.77
2019-04-27T12:17:51.042Z,3.13
2019-04-27T12:20:20.476Z,3.03
2019-04-27T12:22:49.910Z,2.70
2019-04-27T12:25:20.256Z,3.20
2019-04-27T12:28:07.105Z,3.10
2019-04-27T12:30:54.006Z,3.40
2019-04-27T12:33:23.499Z,3.20
2019-04-27T12:35:52.656Z,3.67
2019-04-27T12:38:21.840Z,4.00
2019-04-27T12:40:50.997Z,3.77
2019-04-27T12:43:21.366Z,3.60
2019-04-27T12:45:50.519Z,4.07
2019-04-27T12:48:20.060Z,4.00
2019-04-27T12:50:49.230Z,4.10
2019-04-27T12:53:48.600Z,3.40
2019-04-27T12:56:21.291Z,4.10
2019-04-27T12:58:57.739Z,3.90
2019-04-27T13:01:27.897Z,3.73
2019-04-27T13:03:59.068Z,3.93
2019-04-27T13:06:28.006Z,4.00
2019-04-27T13:08:57.177Z,3.73
2019-04-27T13:11:26.771Z,3.10
2019-04-27T13:13:57.628Z,3.37
2019-04-27T13:16:30.199Z,3.07
2019-04-27T13:18:59.041Z,2.53
2019-04-27T13:21:28.225Z,2.80
2019-04-27T13:24:04.402Z,2.50
2019-04-27T13:26:33.142Z,2.90
2019-04-27T13:29:02.352Z,3.10
2019-04-27T13:31:31.507Z,2.80
2019-04-27T13:34:02.697Z,2.87
2019-04-27T13:36:33.075Z,3.10
2019-04-27T13:39:02.308Z,0.50
2019-04-27T13:41:32.906Z,0.60
2019-04-27T13:44:02.485Z,0.70
2019-04-27T13:46:51.636Z,0.40
2019-04-27T13:49:40.155Z,0.70
2019-04-27T13:52:17.893Z,0.60
2019-04-27T13:54:47.428Z,0.90
2019-04-27T13:57:18.390Z,1.03
2019-04-27T13:59:47.627Z,1.03
2019-04-27T14:02:16.811Z,0.90
2019-04-27T14:04:46.009Z,0.77
2019-04-27T14:07:15.242Z,0.70
2019-04-27T14:09:44.701Z,0.60
2019-04-27T14:12:21.630Z,0.90
2019-04-27T14:14:51.214Z,0.80
2019-04-27T14:17:20.372Z,0.70
2019-04-27T14:19:49.550Z,1.07
2019-04-27T14:22:18.984Z,0.80
2019-04-27T14:24:49.074Z,0.90
2019-04-27T14:27:19.328Z,1.00
2019-04-27T14:29:49.058Z,0.97
2019-04-27T14:32:18.732Z,0.80
2019-04-27T14:34:50.391Z,0.70
2019-04-27T14:37:19.498Z,0.70
2019-04-27T14:39:49.061Z,0.70
2019-04-27T14:42:19.250Z,1.00
2019-04-27T14:44:49.082Z,1.10
2019-04-27T14:47:18.882Z,2.10
2019-04-27T14:49:49.054Z,1.43
2019-04-27T14:52:20.455Z,1.20
2019-04-27T14:54:50.817Z,0.80
2019-04-27T14:57:21.105Z,0.80
2019-04-27T14:59:51.832Z,0.90
2019-04-27T15:02:21.591Z,0.97
2019-04-27T15:04:53.063Z,0.90
2019-04-27T15:07:22.209Z,1.00
2019-04-27T15:09:54.469Z,1.20
2019-04-27T15:12:30.809Z,1.40
2019-04-27T15:15:01.531Z,0.97
2019-04-27T15:17:31.519Z,1.33
2019-04-27T15:20:06.201Z,1.30
2019-04-27T15:22:35.837Z,1.00
2019-04-27T15:25:12.373Z,1.23
2019-04-27T15:27:42.150Z,0.87
2019-04-27T15:30:18.552Z,1.00
2019-04-27T15:33:16.198Z,1.20
2019-04-27T15:35:51.412Z,1.10
2019-04-27T15:38:25.332Z,1.00
2019-04-27T15:41:12.616Z,1.00
2019-04-27T15:43:43.182Z,1.23
2019-04-27T15:46:12.847Z,1.00
2019-04-27T15:48:43.002Z,1.10
2019-04-27T15:51:17.278Z,1.17
2019-04-27T15:53:50.945Z,1.17
2019-04-27T15:56:21.579Z,1.10
2019-04-27T15:58:51.701Z,1.00
2019-04-27T16:01:23.986Z,1.10
2019-04-27T16:03:53.968Z,1.07
2019-04-27T16:06:24.553Z,1.00
2019-04-27T16:08:53.983Z,1.30
2019-04-27T16:11:23.900Z,1.13
2019-04-27T16:13:53.219Z,1.30
2019-04-27T16:16:24.554Z,1.23
2019-04-27T16:18:54.646Z,1.17
2019-04-27T16:21:24.198Z,1.10
2019-04-27T16:23:55.035Z,1.17
2019-04-27T16:26:24.501Z,1.30
2019-04-27T16:28:54.773Z,1.40
2019-04-27T16:31:24.784Z,1.40
2019-04-27T16:33:59.254Z,1.37
2019-04-27T16:36:28.840Z,1.30
2019-04-27T16:39:03.601Z,1.40
2019-04-27T16:41:37.333Z,1.30
2019-04-27T16:44:10.815Z,1.30
2019-04-27T16:46:43.877Z,1.30
2019-04-27T16:49:15.053Z,1.30
2019-04-27T16:51:44.433Z,1.00
2019-04-27T16:54:17.557Z,1.40
2019-04-27T16:56:45.620Z,1.33
2019-04-27T16:59:36.441Z,1.70
2019-04-27T17:01:47.681Z,1.47
2019-04-27T17:04:18.873Z,1.50
2019-04-27T17:06:49.499Z,1.30
2019-04-27T17:09:19.383Z,1.40
2019-04-27T17:11:54.039Z,1.90
2019-04-27T17:14:46.358Z,1.60
2019-04-27T17:17:42.747Z,1.80
2019-04-27T17:20:17.798Z,1.83
2019-04-27T17:22:45.586Z,1.87
2019-04-27T17:25:23.231Z,2.10
2019-04-27T17:28:04.246Z,2.20
2019-04-27T17:30:37.911Z,2.17
2019-04-27T17:33:20.546Z,1.87
2019-04-27T17:35:48.927Z,1.80
2019-04-27T17:38:20.042Z,1.80
2019-04-27T17:40:51.794Z,1.93
2019-04-27T17:43:23.792Z,1.83
2019-04-27T17:45:54.460Z,1.77
2019-04-27T17:48:25.019Z,1.80
2019-04-27T17:50:55.852Z,1.77
2019-04-27T17:53:29.815Z,2.67
2019-04-27T17:56:02.946Z,2.30
2019-04-27T17:58:28.973Z,2.40
2019-04-27T18:00:59.952Z,1.40
2019-04-27T18:03:30.104Z,1.23
2019-04-27T18:06:00.153Z,1.63
2019-04-27T18:08:31.264Z,1.73
2019-04-27T18:11:03.143Z,1.50
2019-04-27T18:13:31.847Z,1.77
2019-04-27T18:16:01.339Z,1.93
2019-04-27T18:18:50.297Z,1.80
2019-04-27T18:21:29.517Z,1.37
2019-04-27T18:24:09.794Z,2.27
2019-04-27T18:26:51.575Z,2.20
2019-04-27T18:29:22.792Z,2.20
2019-04-27T18:31:54.728Z,2.20
2019-04-27T18:34:24.022Z,1.83
2019-04-27T18:36:53.976Z,2.37
2019-04-27T18:39:23.940Z,2.80
2019-04-27T18:41:54.417Z,2.60
2019-04-27T18:44:31.966Z,2.23
2019-04-27T18:47:03.482Z,1.83
2019-04-27T18:49:55.350Z,2.10
2019-04-27T18:52:47.339Z,2.80
2019-04-27T18:55:16.823Z,3.67
2019-04-27T18:57:45.937Z,1.73
2019-04-27T19:00:17.088Z,1.60
2019-04-27T19:02:48.229Z,1.50
2019-04-27T19:05:18.865Z,1.50
2019-04-27T19:07:48.636Z,1.10
2019-04-27T19:10:19.260Z,1.40
2019-04-27T19:12:48.807Z,1.23
2019-04-27T19:15:18.472Z,2.33
2019-04-27T19:17:48.913Z,2.50
2019-04-27T19:20:19.524Z,2.33
2019-04-27T19:22:49.211Z,2.50
2019-04-27T19:25:30.956Z,2.10
2019-04-27T19:28:20.219Z,1.67
2019-04-27T19:30:54.877Z,1.80
2019-04-27T19:33:24.299Z,1.80
2019-04-27T19:35:53.539Z,2.40
2019-04-27T19:38:23.300Z,2.97
2019-04-27T19:40:52.497Z,2.40
2019-04-27T19:43:21.939Z,2.47
2019-04-27T19:45:53.099Z,2.60
2019-04-27T19:48:23.460Z,2.70
2019-04-27T19:50:52.644Z,3.90
2019-04-27T19:53:23.100Z,2.93
2019-04-27T19:56:04.481Z,2.23
2019-04-27T19:58:41.601Z,2.70
2019-04-27T20:01:17.018Z,2.00
2019-04-27T20:03:55.264Z,2.30
2019-04-27T20:06:24.786Z,2.70
2019-04-27T20:08:55.670Z,2.63
2019-04-27T20:11:24.947Z,2.03
2019-04-27T20:14:00.878Z,1.83
2019-04-27T20:16:31.747Z,2.17
2019-04-27T20:19:02.676Z,1.73
2019-04-27T20:21:32.134Z,3.37
2019-04-27T20:24:01.782Z,2.23
2019-04-27T20:26:31.262Z,2.33
2019-04-27T20:29:02.217Z,1.90
2019-04-27T20:31:36.471Z,2.20
2019-04-27T20:34:05.712Z,2.00
2019-04-27T20:36:35.619Z,2.00
2019-04-27T20:39:08.037Z,2.10
2019-04-27T20:41:37.242Z,2.50
2019-04-27T20:44:06.974Z,2.33
2019-04-27T20:46:36.150Z,2.30
2019-04-27T20:49:17.268Z,19.73
2019-04-27T20:51:56.166Z,8.50
2019-04-27T20:54:25.378Z,3.70
2019-04-27T20:56:57.170Z,2.67
2019-04-27T20:59:25.427Z,3.20
2019-04-27T21:01:54.627Z,4.40
2019-04-27T21:04:27.257Z,3.50
2019-04-27T21:07:01.180Z,2.60
2019-04-27T21:09:32.330Z,2.30
2019-04-27T21:12:01.862Z,2.90
2019-04-27T21:14:31.653Z,2.23
2019-04-27T21:17:01.776Z,2.57
2019-04-27T21:19:31.281Z,2.70
2019-04-27T21:22:01.206Z,2.67
2019-04-27T21:24:31.111Z,2.47
2019-04-27T21:27:00.724Z,2.57
2019-04-27T21:29:31.138Z,2.10
2019-04-27T21:32:01.034Z,2.33
2019-04-27T21:34:31.482Z,2.33
2019-04-27T21:37:01.149Z,2.53
2019-04-27T21:39:31.895Z,2.40
2019-04-27T21:42:03.348Z,2.17
2019-04-27T21:44:32.843Z,3.57
2019-04-27T21:47:02.340Z,2.40
2019-04-27T21:49:32.266Z,2.17
2019-04-27T21:52:08.455Z,2.63
2019-04-27T21:54:38.647Z,2.37
2019-04-27T21:57:08.211Z,2.00
2019-04-27T21:59:37.385Z,1.77
2019-04-27T22:02:07.987Z,2.10
2019-04-27T22:04:37.285Z,1.80
2019-04-27T22:07:06.689Z,1.97
2019-04-27T22:09:37.926Z,2.03
2019-04-27T22:12:07.099Z,1.80
2019-04-27T22:14:37.303Z,1.50
2019-04-27T22:17:07.098Z,1.80
2019-04-27T22:19:36.286Z,1.90
2019-04-27T22:22:10.644Z,1.90
2019-04-27T22:24:42.809Z,1.90
2019-04-27T22:27:12.143Z,1.90
2019-04-27T22:29:41.602Z,1.83
2019-04-27T22:32:12.607Z,2.00
2019-04-27T22:34:42.609Z,2.10
2019-04-27T22:37:12.490Z,2.20
2019-04-27T22:40:09.388Z,1.80
2019-04-27T22:42:58.172Z,1.60
2019-04-27T22:45:33.566Z,2.27
2019-04-27T22:48:03.524Z,1.73
2019-04-27T22:50:35.136Z,2.00
2019-04-27T22:53:05.201Z,2.00
2019-04-27T22:55:36.749Z,2.07
2019-04-27T22:58:13.183Z,1.83
2019-04-27T23:00:52.113Z,2.30
2019-04-27T23:03:28.211Z,1.90
2019-04-27T23:06:02.049Z,1.83
2019-04-27T23:08:31.772Z,1.90
2019-04-27T23:11:02.643Z,2.20
2019-04-27T23:13:32.435Z,2.20
2019-04-27T23:16:07.014Z,2.30
2019-04-27T23:18:37.069Z,2.37
2019-04-27T23:21:07.049Z,2.03
2019-04-27T23:23:36.246Z,2.00
2019-04-27T23:26:08.039Z,1.87
2019-04-27T23:28:37.552Z,2.53
2019-04-27T23:31:13.652Z,2.23
2019-04-27T23:33:46.515Z,1.93
2019-04-27T23:36:15.956Z,2.50
2019-04-27T23:38:45.128Z,1.90
2019-04-27T23:41:14.602Z,2.00
2019-04-27T23:43:45.838Z,2.00
2019-04-27T23:46:19.032Z,2.30
2019-04-27T23:48:51.933Z,2.30
2019-04-27T23:51:39.323Z,2.50
2019-04-27T23:54:09.050Z,2.73
2019-04-27T23:56:41.883Z,2.67
2019-04-27T23:59:23.790Z,2.50
